Terminal Aerodrome Forecast
Issued by NWS

Home | Current Version | Previous Version | Text Only | Print | Product List | Glossary On
Versions: 1 2 3 4 5 6 7 8 9 10 11 12 13
946
FTUS42 TJSJ 202344
TAFJMZ
TAF
TJMZ 202344Z 2100/2124 07006KT P6SM FEW040
     FM211600 VRB10KT P6SM VCTS SCT030CB BKN060
     FM212200 06006KT P6SM SCT040
      AMD NOT SKED=

USA.gov is the U.S. government's official web portal to all federal, state and local government web resources and services.